createdAt,value
2017-07-03T00:01:13.478Z,55.09
2017-07-03T00:02:13.263Z,54.8
2017-07-03T00:03:13.203Z,54.8
2017-07-03T00:04:13.141Z,54.9
2017-07-03T00:05:12.903Z,54.71
2017-07-03T00:06:13.116Z,54.8
2017-07-03T00:07:12.954Z,54.8
2017-07-03T00:08:12.893Z,54.8
2017-07-03T00:09:12.833Z,54.8
2017-07-03T00:10:12.916Z,55.09
2017-07-03T00:11:12.704Z,54.8
2017-07-03T00:12:12.647Z,54.99
2017-07-03T00:13:12.580Z,54.99
2017-07-03T00:14:12.529Z,55.09
2017-07-03T00:15:12.468Z,54.8
2017-07-03T00:16:12.395Z,54.71
2017-07-03T00:17:12.331Z,54.99
2017-07-03T00:18:12.273Z,55.09
2017-07-03T00:19:12.214Z,54.99
2017-07-03T00:20:11.922Z,54.9
2017-07-03T00:21:11.762Z,54.9
2017-07-03T00:22:12.025Z,54.9
2017-07-03T00:23:11.961Z,54.99
2017-07-03T00:24:11.899Z,54.9
2017-07-03T00:25:11.987Z,54.99
2017-07-03T00:26:11.773Z,54.99
2017-07-03T00:27:11.715Z,54.9
2017-07-03T00:28:11.655Z,54.99
2017-07-03T00:29:11.589Z,54.9
2017-07-03T00:30:11.723Z,54.51
2017-07-03T00:31:11.133Z,55.19
2017-07-03T00:32:11.649Z,54.99
2017-07-03T00:33:11.338Z,54.99
2017-07-03T00:34:10.948Z,54.9
2017-07-03T00:35:11.362Z,54.9
2017-07-03T00:36:11.153Z,54.8
2017-07-03T00:37:11.091Z,54.99
2017-07-03T00:38:11.025Z,54.9
2017-07-03T00:39:10.966Z,54.9
2017-07-03T00:40:10.903Z,54.51
2017-07-03T00:41:10.839Z,54.9
2017-07-03T00:42:10.928Z,54.9
2017-07-03T00:43:10.718Z,54.9
2017-07-03T00:44:10.652Z,54.9
2017-07-03T00:45:10.590Z,54.99
2017-07-03T00:46:10.534Z,54.9
2017-07-03T00:47:10.469Z,54.8
2017-07-03T00:48:10.403Z,54.61
2017-07-03T00:49:10.342Z,54.99
2017-07-03T00:50:10.382Z,54.99
2017-07-03T00:51:10.218Z,54.99
2017-07-03T00:52:10.157Z,54.8
2017-07-03T00:53:10.097Z,54.61
2017-07-03T00:54:10.036Z,54.61
2017-07-03T00:55:09.794Z,54.8
2017-07-03T00:56:09.912Z,54.51
2017-07-03T00:57:09.847Z,55.29
2017-07-03T00:58:09.936Z,54.51
2017-07-03T00:59:09.725Z,54.71
2017-07-03T01:00:09.812Z,54.51
2017-07-03T01:01:09.597Z,54.41
2017-07-03T01:02:09.535Z,54.51
2017-07-03T01:03:09.471Z,55.19
2017-07-03T01:04:09.412Z,54.51
2017-07-03T01:05:09.269Z,54.51
2017-07-03T01:06:09.286Z,54.41
2017-07-03T01:07:09.226Z,54.51
2017-07-03T01:08:09.162Z,54.61
2017-07-03T01:09:09.098Z,54.61
2017-07-03T01:10:09.339Z,54.8
2017-07-03T01:11:08.973Z,54.71
2017-07-03T01:12:08.584Z,54.71
2017-07-03T01:13:08.860Z,54.51
2017-07-03T01:14:08.787Z,54.41
2017-07-03T01:15:08.649Z,54.61
2017-07-03T01:16:08.664Z,54.51
2017-07-03T01:17:08.601Z,54.71
2017-07-03T01:18:08.539Z,54.61
2017-07-03T01:19:08.477Z,54.61
2017-07-03T01:20:08.188Z,54.71
2017-07-03T01:21:08.023Z,54.71
2017-07-03T01:22:07.963Z,54.71
2017-07-03T01:23:07.902Z,54.61
2017-07-03T01:24:08.172Z,54.61
2017-07-03T01:25:08.258Z,55.09
2017-07-03T01:26:08.045Z,54.71
2017-07-03T01:27:07.653Z,54.71
2017-07-03T01:28:07.919Z,54.51
2017-07-03T01:29:07.856Z,54.8
2017-07-03T01:30:07.794Z,54.61
2017-07-03T01:31:07.731Z,54.61
2017-07-03T01:32:07.673Z,54.61
2017-07-03T01:33:07.278Z,54.61
2017-07-03T01:34:07.551Z,54.61
2017-07-03T01:35:07.536Z,54.61
2017-07-03T01:36:07.422Z,54.61
2017-07-03T01:37:07.357Z,54.61
2017-07-03T01:38:07.296Z,54.71
2017-07-03T01:39:07.233Z,54.61
2017-07-03T01:40:07.172Z,54.61
2017-07-03T01:41:07.110Z,54.61
2017-07-03T01:42:07.048Z,54.51
2017-07-03T01:43:06.985Z,54.61
2017-07-03T01:44:06.922Z,54.71
2017-07-03T01:45:06.862Z,54.71
2017-07-03T01:46:06.800Z,54.8
2017-07-03T01:47:06.737Z,54.8
2017-07-03T01:48:06.677Z,54.61
2017-07-03T01:49:06.614Z,54.71
2017-07-03T01:50:06.550Z,54.71
2017-07-03T01:51:06.163Z,54.8
2017-07-03T01:52:06.427Z,54.61
2017-07-03T01:53:06.371Z,54.51
2017-07-03T01:54:06.304Z,54.8
2017-07-03T01:55:06.269Z,54.71
2017-07-03T01:56:06.180Z,54.61
2017-07-03T01:57:06.114Z,54.71
2017-07-03T01:58:05.747Z,54.61
2017-07-03T01:59:05.990Z,54.8
2017-07-03T02:00:05.928Z,54.61
2017-07-03T02:01:05.865Z,54.71
2017-07-03T02:02:05.807Z,54.8
2017-07-03T02:03:05.742Z,54.61
2017-07-03T02:04:05.678Z,54.71
2017-07-03T02:05:05.617Z,54.71
2017-07-03T02:06:05.554Z,54.61
2017-07-03T02:07:05.491Z,54.61
2017-07-03T02:08:05.430Z,54.61
2017-07-03T02:09:05.367Z,54.8
2017-07-03T02:10:04.988Z,54.61
2017-07-03T02:11:05.243Z,54.71
2017-07-03T02:12:04.851Z,54.8
2017-07-03T02:13:05.121Z,54.61
2017-07-03T02:14:04.727Z,54.61
2017-07-03T02:15:04.668Z,54.9
2017-07-03T02:16:04.932Z,54.9
2017-07-03T02:17:04.906Z,54.61
2017-07-03T02:18:04.810Z,54.61
2017-07-03T02:19:04.416Z,54.71
2017-07-03T02:20:04.683Z,54.71
2017-07-03T02:21:04.624Z,54.8
2017-07-03T02:22:04.559Z,54.8
2017-07-03T02:23:04.498Z,54.71
2017-07-03T02:24:04.434Z,54.51
2017-07-03T02:25:04.372Z,54.51
2017-07-03T02:26:04.310Z,54.61
2017-07-03T02:27:04.248Z,54.61
2017-07-03T02:28:04.184Z,54.61
2017-07-03T02:29:04.123Z,54.61
2017-07-03T02:30:04.086Z,54.61
2017-07-03T02:31:03.997Z,54.61
2017-07-03T02:32:03.943Z,54.61
2017-07-03T02:33:03.873Z,54.9
2017-07-03T02:34:03.810Z,54.9
2017-07-03T02:35:03.749Z,54.9
2017-07-03T02:36:03.696Z,54.61
2017-07-03T02:37:03.623Z,54.51
2017-07-03T02:38:03.560Z,54.8
2017-07-03T02:39:03.498Z,54.61
2017-07-03T02:40:03.437Z,54.9
2017-07-03T02:41:03.374Z,54.51
2017-07-03T02:42:03.314Z,54.61
2017-07-03T02:43:03.254Z,54.51
2017-07-03T02:44:03.187Z,54.51
2017-07-03T02:45:03.125Z,54.61
2017-07-03T02:46:03.064Z,54.71
2017-07-03T02:47:03.003Z,54.61
2017-07-03T02:48:02.938Z,54.61
2017-07-03T02:49:02.876Z,54.61
2017-07-03T02:50:02.813Z,54.61
2017-07-03T02:51:02.753Z,54.61
2017-07-03T02:52:02.689Z,54.61
2017-07-03T02:53:02.627Z,54.71
2017-07-03T02:54:02.565Z,54.61
2017-07-03T02:55:02.507Z,54.61
2017-07-03T02:56:02.440Z,54.71
2017-07-03T02:57:02.387Z,54.61
2017-07-03T02:58:02.319Z,54.77
2017-07-03T02:59:02.259Z,54.61
2017-07-03T03:00:02.191Z,54.61
2017-07-03T03:01:02.134Z,54.8
2017-07-03T03:02:02.067Z,54.61
2017-07-03T03:03:02.007Z,54.8
2017-07-03T03:04:01.628Z,54.8
2017-07-03T03:05:01.552Z,54.61
2017-07-03T03:06:01.818Z,54.61
2017-07-03T03:07:01.760Z,54.32
2017-07-03T03:08:01.704Z,54.22
2017-07-03T03:09:01.632Z,53.83
2017-07-03T03:10:01.576Z,53.16
2017-07-03T03:11:01.506Z,52.29
2017-07-03T03:12:01.447Z,51.71
2017-07-03T03:13:01.384Z,51.03
2017-07-03T03:14:01.322Z,51.42
2017-07-03T03:15:01.257Z,50.74
2017-07-03T03:16:01.196Z,51.03
2017-07-03T03:17:01.133Z,50.84
2017-07-03T03:18:01.069Z,50.65
2017-07-03T03:19:01.008Z,50.04
2017-07-03T03:20:00.949Z,50.04
2017-07-03T03:21:00.883Z,50.04
2017-07-03T03:22:00.821Z,49.37
2017-07-03T03:23:00.758Z,49.55
2017-07-03T03:24:00.696Z,49.95
2017-07-03T03:25:00.639Z,49.46
2017-07-03T03:26:00.571Z,49.46
2017-07-03T03:27:00.510Z,49.55
2017-07-03T03:28:00.450Z,49.17
2017-07-03T03:29:00.388Z,49.17
2017-07-03T03:30:00.322Z,49.37
2017-07-03T03:31:00.260Z,49.37
2017-07-03T03:32:00.198Z,48.79
2017-07-03T03:33:00.133Z,48.88
2017-07-03T03:34:00.071Z,48.79
2017-07-03T03:35:00.011Z,48.49
2017-07-03T03:35:59.945Z,48.39
2017-07-03T03:36:59.882Z,48.01
2017-07-03T03:37:59.822Z,48.39
2017-07-03T03:38:59.760Z,48.49
2017-07-03T03:39:59.697Z,48.69
2017-07-03T03:40:59.633Z,48.39
2017-07-03T03:41:59.571Z,48.88
2017-07-03T03:42:59.522Z,48.3
2017-07-03T03:43:59.464Z,48.21
2017-07-03T03:44:59.384Z,48.3
2017-07-03T03:45:59.624Z,48.01
2017-07-03T03:46:59.261Z,47.91
2017-07-03T03:47:59.197Z,48.3
2017-07-03T03:48:59.136Z,48.01
2017-07-03T03:49:59.277Z,47.81
2017-07-03T03:50:59.007Z,47.91
2017-07-03T03:51:58.949Z,47.72
2017-07-03T03:52:58.885Z,47.81
2017-07-03T03:53:58.823Z,47.72
2017-07-03T03:54:58.759Z,47.72
2017-07-03T03:55:58.948Z,47.53
2017-07-03T03:56:58.304Z,47.91
2017-07-03T03:57:58.569Z,47.81
2017-07-03T03:58:58.505Z,47.24
2017-07-03T03:59:58.443Z,47.33
2017-07-03T04:00:58.381Z,47.53
2017-07-03T04:01:58.318Z,47.72
2017-07-03T04:02:58.258Z,47.63
2017-07-03T04:03:58.194Z,46.95
2017-07-03T04:04:58.138Z,47.05
2017-07-03T04:05:58.067Z,47.63
2017-07-03T04:06:58.006Z,47.05
2017-07-03T04:07:57.941Z,46.85
2017-07-03T04:08:57.550Z,46.75
2017-07-03T04:09:57.818Z,46.95
2017-07-03T04:10:57.755Z,46.95
2017-07-03T04:11:57.691Z,46.66
2017-07-03T04:12:57.633Z,46.95
2017-07-03T04:13:57.571Z,46.95
2017-07-03T04:14:57.504Z,46.66
2017-07-03T04:15:57.591Z,46.75
2017-07-03T04:16:57.376Z,46.95
2017-07-03T04:17:57.315Z,46.75
2017-07-03T04:18:57.254Z,46.56
2017-07-03T04:19:57.189Z,46.75
2017-07-03T04:21:11.895Z,46.56
2017-07-03T04:21:57.063Z,46.66
2017-07-03T04:22:57.001Z,46.66
2017-07-03T04:23:56.946Z,47.05
2017-07-03T04:24:56.876Z,46.85
2017-07-03T04:25:56.814Z,46.83
2017-07-03T04:26:56.904Z,46.95
2017-07-03T04:27:56.690Z,46.17
2017-07-03T04:28:56.626Z,46.73
2017-07-03T04:29:56.561Z,46.37
2017-07-03T04:30:56.498Z,46.85
2017-07-03T04:31:56.686Z,46.15
2017-07-03T04:32:56.373Z,46.44
2017-07-03T04:33:56.313Z,46.27
2017-07-03T04:34:56.248Z,46.25
2017-07-03T04:35:56.184Z,46.34
2017-07-03T04:36:56.122Z,46.37
2017-07-03T04:37:56.057Z,46.15
2017-07-03T04:38:55.996Z,46.56
2017-07-03T04:39:55.937Z,46.17
2017-07-03T04:40:55.871Z,45.96
2017-07-03T04:41:55.808Z,46.34
2017-07-03T04:42:55.746Z,46.44
2017-07-03T04:43:55.683Z,46.15
2017-07-03T04:44:55.621Z,46.34
2017-07-03T04:45:55.556Z,46.17
2017-07-03T04:46:55.495Z,46.27
2017-07-03T04:47:55.432Z,46.37
2017-07-03T04:48:55.368Z,46.27
2017-07-03T04:49:54.979Z,46.37
2017-07-03T04:50:55.244Z,46.25
2017-07-03T04:51:55.191Z,46.25
2017-07-03T04:52:55.266Z,45.98
2017-07-03T04:53:55.055Z,46.06
2017-07-03T04:54:54.992Z,46.34
2017-07-03T04:55:54.928Z,45.86
2017-07-03T04:56:54.536Z,45.67
2017-07-03T04:57:55.101Z,46.06
2017-07-03T04:58:54.739Z,45.96
2017-07-03T04:59:54.674Z,46.44
2017-07-03T05:00:54.612Z,45.86
2017-07-03T05:01:54.552Z,45.86
2017-07-03T05:02:54.310Z,45.86
2017-07-03T05:03:54.097Z,45.76
2017-07-03T05:04:54.361Z,46.06
2017-07-03T05:05:54.302Z,45.86
2017-07-03T05:06:54.234Z,46.15
2017-07-03T05:07:54.176Z,45.76
2017-07-03T05:08:54.111Z,45.76
2017-07-03T05:09:54.050Z,45.86
2017-07-03T05:11:08.502Z,45.67
2017-07-03T05:11:53.920Z,45.86
2017-07-03T05:12:53.857Z,45.76
2017-07-03T05:13:53.800Z,45.76
2017-07-03T05:14:53.731Z,45.38
2017-07-03T05:15:53.873Z,45.76
2017-07-03T05:16:53.606Z,45.86
2017-07-03T05:17:53.541Z,45.48
2017-07-03T05:18:53.631Z,45.76
2017-07-03T05:19:53.418Z,46.15
2017-07-03T05:20:53.703Z,45.76
2017-07-03T05:21:53.292Z,45.86
2017-07-03T05:22:52.901Z,45.96
2017-07-03T05:23:53.315Z,45.96
2017-07-03T05:24:53.102Z,45.96
2017-07-03T05:25:53.137Z,45.38
2017-07-03T05:26:52.976Z,45.96
2017-07-03T05:27:52.915Z,46.06
2017-07-03T05:28:52.851Z,45.76
2017-07-03T05:29:52.789Z,45.86
2017-07-03T05:30:52.546Z,46.15
2017-07-03T05:31:52.718Z,45.48
2017-07-03T05:32:52.601Z,45.86
2017-07-03T05:33:52.536Z,46.15
2017-07-03T05:34:52.470Z,45.86
2017-07-03T05:35:52.708Z,45.96
2017-07-03T05:36:52.348Z,45.76
2017-07-03T05:37:52.282Z,46.06
2017-07-03T05:38:52.219Z,46.06
2017-07-03T05:39:52.155Z,45.96
2017-07-03T05:40:52.197Z,46.06
2017-07-03T05:41:52.034Z,45.76
2017-07-03T05:42:51.967Z,45.76
2017-07-03T05:43:51.904Z,45.67
2017-07-03T05:44:52.192Z,45.76
2017-07-03T05:45:51.786Z,45.76
2017-07-03T05:46:51.718Z,46.15
2017-07-03T05:47:51.324Z,46.06
2017-07-03T05:48:51.261Z,45.86
2017-07-03T05:49:51.828Z,45.76
2017-07-03T05:50:51.612Z,45.96
2017-07-03T05:51:51.403Z,46.44
2017-07-03T05:52:51.339Z,45.86
2017-07-03T05:53:51.281Z,45.86
2017-07-03T05:54:51.214Z,45.67
2017-07-03T05:55:51.248Z,45.76
2017-07-03T05:56:51.093Z,45.67
2017-07-03T05:57:51.023Z,45.67
2017-07-03T05:58:50.963Z,45.76
2017-07-03T05:59:50.897Z,46.06
2017-07-03T06:00:50.983Z,45.96
2017-07-03T06:01:50.770Z,45.86
2017-07-03T06:02:50.704Z,46.34
2017-07-03T06:03:50.643Z,46.15
2017-07-03T06:04:50.583Z,45.76
2017-07-03T06:05:50.768Z,45.67
2017-07-03T06:06:50.492Z,45.76
2017-07-03T06:07:50.395Z,45.86
2017-07-03T06:08:50.330Z,45.86
2017-07-03T06:09:50.264Z,45.67
2017-07-03T06:10:50.503Z,45.67
2017-07-03T06:11:50.140Z,45.76
2017-07-03T06:12:50.079Z,45.67
2017-07-03T06:13:49.686Z,45.76
2017-07-03T06:14:49.951Z,46.54
2017-07-03T06:15:50.285Z,46.34
2017-07-03T06:16:49.822Z,45.57
2017-07-03T06:17:49.760Z,45.76
2017-07-03T06:18:49.699Z,45.76
2017-07-03T06:19:49.636Z,45.86
2017-07-03T06:20:49.672Z,45.86
2017-07-03T06:21:49.183Z,45.67
2017-07-03T06:22:49.445Z,45.67
2017-07-03T06:23:49.388Z,45.67
2017-07-03T06:24:49.320Z,46.06
2017-07-03T06:25:49.510Z,45.76
2017-07-03T06:26:49.194Z,45.86
2017-07-03T06:27:49.130Z,46.06
2017-07-03T06:28:49.067Z,46.34
2017-07-03T06:29:49.002Z,46.15
2017-07-03T06:30:49.190Z,45.67
2017-07-03T06:31:48.877Z,45.86
2017-07-03T06:32:48.812Z,45.86
2017-07-03T06:33:48.752Z,45.96
2017-07-03T06:34:48.358Z,45.96
2017-07-03T06:35:48.813Z,45.86
2017-07-03T06:36:48.660Z,45.76
2017-07-03T06:37:48.497Z,45.67
2017-07-03T06:38:48.434Z,45.76
2017-07-03T06:39:48.379Z,46.06
2017-07-03T06:40:47.980Z,46.06
2017-07-03T06:41:48.017Z,45.86
2017-07-03T06:42:48.184Z,45.76
2017-07-03T06:43:48.324Z,45.86
2017-07-03T06:44:48.054Z,45.76
2017-07-03T06:45:48.014Z,45.86
2017-07-03T06:46:48.030Z,45.86
2017-07-03T06:47:47.866Z,45.86
2017-07-03T06:48:47.806Z,45.67
2017-07-03T06:49:47.512Z,45.67
2017-07-03T06:50:47.827Z,45.76
2017-07-03T06:51:47.613Z,46.06
2017-07-03T06:52:47.553Z,45.96
2017-07-03T06:53:47.490Z,45.67
2017-07-03T06:54:47.095Z,45.96
2017-07-03T06:55:47.659Z,45.86
2017-07-03T06:56:47.297Z,46.06
2017-07-03T06:57:47.235Z,45.86
2017-07-03T06:58:47.179Z,46.54
2017-07-03T06:59:47.108Z,46.54
2017-07-03T07:00:47.295Z,46.44
2017-07-03T07:01:46.991Z,46.34
2017-07-03T07:02:47.268Z,46.06
2017-07-03T07:03:46.856Z,46.44
2017-07-03T07:04:46.476Z,46.25
2017-07-03T07:05:46.980Z,46.25
2017-07-03T07:06:46.666Z,46.06
2017-07-03T07:07:46.604Z,46.34
2017-07-03T07:08:46.539Z,46.44
2017-07-03T07:09:46.475Z,45.86
2017-07-03T07:10:46.569Z,46.06
2017-07-03T07:11:46.349Z,46.44
2017-07-03T07:12:46.440Z,45.86
2017-07-03T07:13:46.224Z,45.96
2017-07-03T07:14:45.832Z,45.96
2017-07-03T07:15:46.351Z,45.76
2017-07-03T07:16:46.037Z,45.76
2017-07-03T07:17:45.972Z,45.86
2017-07-03T07:18:45.907Z,46.15
2017-07-03T07:19:45.844Z,45.96
2017-07-03T07:20:46.131Z,46.06
2017-07-03T07:21:45.392Z,45.96
2017-07-03T07:22:45.657Z,46.06
2017-07-03T07:23:45.594Z,46.06
2017-07-03T07:24:45.532Z,46.15
2017-07-03T07:25:45.618Z,46.06
2017-07-03T07:26:45.404Z,45.96
2017-07-03T07:27:45.339Z,45.86
2017-07-03T07:28:45.526Z,45.48
2017-07-03T07:29:45.216Z,45.48
2017-07-03T07:30:45.298Z,45.76
2017-07-03T07:31:45.093Z,45.76
2017-07-03T07:32:45.024Z,45.76
2017-07-03T07:33:45.362Z,45.48
2017-07-03T07:34:44.901Z,45.38
2017-07-03T07:35:45.084Z,45.48
2017-07-03T07:36:44.775Z,45.57
2017-07-03T07:37:44.710Z,45.57
2017-07-03T07:38:44.654Z,45.09
2017-07-03T07:39:44.628Z,45.09
2017-07-03T07:40:44.620Z,45.48
2017-07-03T07:41:44.454Z,45.57
2017-07-03T07:42:44.396Z,45.57
2017-07-03T07:43:44.332Z,44.9
2017-07-03T07:44:43.939Z,44.7
2017-07-03T07:45:44.201Z,44.6
2017-07-03T07:46:44.138Z,44.6
2017-07-03T07:47:44.075Z,44.7
2017-07-03T07:48:44.013Z,44.42
2017-07-03T07:49:43.953Z,44.6
2017-07-03T07:50:44.038Z,44.7
2017-07-03T07:51:43.825Z,44.7
2017-07-03T07:52:43.764Z,44.8
2017-07-03T07:53:43.370Z,44.9
2017-07-03T07:54:43.886Z,44.22
2017-07-03T07:55:43.443Z,44.12
2017-07-03T07:56:43.708Z,44.12
2017-07-03T07:57:43.445Z,44.42
2017-07-03T07:58:43.382Z,43.84
2017-07-03T07:59:43.571Z,44.22
2017-07-03T08:00:43.358Z,44.12
2017-07-03T08:01:43.242Z,44.12
2017-07-03T08:02:43.129Z,44.22
2017-07-03T08:03:43.066Z,44.32
2017-07-03T08:04:43.003Z,44.22
2017-07-03T08:05:43.043Z,44.03
2017-07-03T08:06:42.878Z,44.12
2017-07-03T08:07:42.817Z,44.03
2017-07-03T08:08:42.757Z,44.22
2017-07-03T08:09:42.687Z,44.22
2017-07-03T08:10:42.626Z,43.74
2017-07-03T08:11:42.561Z,44.12
2017-07-03T08:12:42.184Z,44.03
2017-07-03T08:13:42.439Z,44.03
2017-07-03T08:14:42.373Z,44.32
2017-07-03T08:15:42.310Z,43.93
2017-07-03T08:16:42.249Z,43.64
2017-07-03T08:17:42.186Z,43.54
2017-07-03T08:18:42.123Z,43.35
2017-07-03T08:19:42.058Z,43.54
2017-07-03T08:20:41.998Z,43.45
2017-07-03T08:21:41.930Z,43.64
2017-07-03T08:22:41.869Z,43.64
2017-07-03T08:23:41.807Z,43.45
2017-07-03T08:24:41.752Z,43.35
2017-07-03T08:25:41.939Z,43.45
2017-07-03T08:26:41.716Z,43.54
2017-07-03T08:27:41.555Z,43.26
2017-07-03T08:28:41.539Z,43.45
2017-07-03T08:29:41.426Z,43.45
2017-07-03T08:30:41.615Z,43.26
2017-07-03T08:31:41.299Z,43.16
2017-07-03T08:32:41.250Z,43.26
2017-07-03T08:33:41.178Z,43.35
2017-07-03T08:34:41.114Z,43.54
2017-07-03T08:35:40.719Z,43.16
2017-07-03T08:36:40.960Z,43.16
2017-07-03T08:37:40.920Z,43.16
2017-07-03T08:38:40.533Z,42.77
2017-07-03T08:39:40.795Z,42.68
2017-07-03T08:40:40.734Z,42.68
2017-07-03T08:41:40.673Z,42.39
2017-07-03T08:42:40.608Z,42.58
2017-07-03T08:43:40.542Z,42.48
2017-07-03T08:44:40.486Z,42.77
2017-07-03T08:45:40.568Z,42.77
2017-07-03T08:46:40.028Z,42.29
2017-07-03T08:47:40.592Z,42.48
2017-07-03T08:48:40.228Z,42.58
2017-07-03T08:49:40.173Z,42.77
2017-07-03T08:50:40.103Z,42.87
2017-07-03T08:51:40.039Z,42.48
2017-07-03T08:52:39.649Z,42.39
2017-07-03T08:53:39.912Z,42.48
2017-07-03T08:54:39.848Z,42.77
2017-07-03T08:55:39.788Z,42.39
2017-07-03T08:56:39.724Z,42.68
2017-07-03T08:57:39.537Z,42.87
2017-07-03T08:58:39.596Z,42.58
2017-07-03T08:59:39.533Z,42.87
2017-07-03T09:00:39.882Z,42.48
2017-07-03T09:01:39.507Z,42.68
2017-07-03T09:02:39.016Z,42.77
2017-07-03T09:03:39.283Z,42.58
2017-07-03T09:04:39.221Z,42.58
2017-07-03T09:05:39.406Z,42.58
2017-07-03T09:06:39.097Z,42.39
2017-07-03T09:07:39.032Z,42.48
2017-07-03T09:08:38.966Z,42.39
2017-07-03T09:09:38.907Z,42.58
2017-07-03T09:10:38.841Z,42.39
2017-07-03T09:11:38.779Z,42.58
2017-07-03T09:12:38.717Z,42.58
2017-07-03T09:13:38.658Z,42.77
2017-07-03T09:14:38.591Z,41.71
2017-07-03T09:15:38.524Z,41.61
2017-07-03T09:16:38.464Z,41.61
2017-07-03T09:17:38.400Z,41.73
2017-07-03T09:18:38.346Z,41.61
2017-07-03T09:19:37.943Z,41.71
2017-07-03T09:20:38.031Z,41.54
2017-07-03T09:21:37.829Z,41.52
2017-07-03T09:22:38.089Z,41.61
2017-07-03T09:23:38.476Z,41.61
2017-07-03T09:24:37.963Z,41.73
2017-07-03T09:25:37.896Z,41.61
2017-07-03T09:26:37.831Z,41.71
2017-07-03T09:27:37.769Z,41.61
2017-07-03T09:28:37.707Z,41.81
2017-07-03T09:29:37.644Z,41.61
2017-07-03T09:30:37.734Z,41.42
2017-07-03T09:31:37.517Z,41.33
2017-07-03T09:32:37.457Z,41.33
2017-07-03T09:33:37.392Z,41.63
2017-07-03T09:34:37.364Z,41.52
2017-07-03T09:35:37.424Z,41.54
2017-07-03T09:36:37.207Z,41.03
2017-07-03T09:37:37.343Z,41.61
2017-07-03T09:38:37.074Z,41.42
2017-07-03T09:39:37.015Z,41.23
2017-07-03T09:40:36.949Z,41.52
2017-07-03T09:41:36.918Z,41.13
2017-07-03T09:42:36.823Z,41.52
2017-07-03T09:43:36.763Z,41.52
2017-07-03T09:44:36.649Z,41.52
2017-07-03T09:45:36.747Z,41.23
2017-07-03T09:46:36.578Z,41.23
2017-07-03T09:47:36.519Z,41.52
2017-07-03T09:48:36.124Z,40.94
2017-07-03T09:49:36.387Z,40.94
2017-07-03T09:50:36.324Z,41.42
2017-07-03T09:51:36.697Z,41.03
2017-07-03T09:52:36.195Z,41.23
2017-07-03T09:53:36.131Z,40.86
2017-07-03T09:54:35.741Z,41.15
2017-07-03T09:55:36.002Z,41.03
2017-07-03T09:56:35.943Z,41.03
2017-07-03T09:57:35.878Z,40.84
2017-07-03T09:58:35.818Z,41.03
2017-07-03T09:59:35.761Z,41.23
2017-07-03T10:00:35.540Z,41.33
2017-07-03T10:01:35.627Z,40.84
2017-07-03T10:02:35.563Z,41.23
2017-07-03T10:03:35.502Z,41.25
2017-07-03T10:04:35.438Z,40.84
2017-07-03T10:05:35.873Z,41.05
2017-07-03T10:06:35.309Z,41.52
2017-07-03T10:07:34.921Z,41.15
2017-07-03T10:08:35.186Z,41.33
2017-07-03T10:09:35.131Z,41.15
2017-07-03T10:10:35.310Z,41.13
2017-07-03T10:11:35.009Z,40.96
2017-07-03T10:12:34.936Z,41.05
2017-07-03T10:13:34.869Z,41.13
2017-07-03T10:14:34.807Z,40.96
2017-07-03T10:15:35.000Z,41.25
2017-07-03T10:16:34.352Z,41.15
2017-07-03T10:17:34.618Z,41.13
2017-07-03T10:18:34.822Z,41.13
2017-07-03T10:19:34.495Z,41.52
2017-07-03T10:20:34.429Z,41.35
2017-07-03T10:21:34.367Z,40.94
2017-07-03T10:22:33.981Z,40.65
2017-07-03T10:23:34.245Z,40.84
2017-07-03T10:24:34.176Z,40.55
2017-07-03T10:25:34.268Z,40.94
2017-07-03T10:26:34.054Z,40.65
2017-07-03T10:27:33.990Z,40.36
2017-07-03T10:28:33.963Z,40.45
2017-07-03T10:29:33.534Z,40.45
2017-07-03T10:30:33.806Z,40.45
2017-07-03T10:31:33.405Z,40.26
2017-07-03T10:32:33.341Z,40.07
2017-07-03T10:33:33.610Z,40.26
2017-07-03T10:34:33.547Z,40.75
2017-07-03T10:35:33.633Z,40.36
2017-07-03T10:36:33.421Z,40.67
2017-07-03T10:37:33.360Z,40.28
2017-07-03T10:38:32.965Z,40.36
2017-07-03T10:39:33.236Z,40.07
2017-07-03T10:40:33.465Z,40.36
2017-07-03T10:41:33.103Z,40.07
2017-07-03T10:42:33.040Z,40.28
2017-07-03T10:43:32.650Z,40.47
2017-07-03T10:44:32.918Z,40.55
2017-07-03T10:45:32.950Z,40.75
2017-07-03T10:46:32.786Z,39.97
2017-07-03T10:47:32.931Z,40.26
2017-07-03T10:48:32.665Z,40.26
2017-07-03T10:49:32.600Z,40.17
2017-07-03T10:50:32.535Z,40.17
2017-07-03T10:51:32.144Z,40.45
2017-07-03T10:52:32.600Z,40.45
2017-07-03T10:53:32.555Z,40.65
2017-07-03T10:54:32.399Z,40.17
2017-07-03T10:55:33.078Z,40.19
2017-07-03T10:56:32.165Z,40.36
2017-07-03T10:57:32.574Z,40.17
2017-07-03T10:58:32.046Z,40.19
2017-07-03T10:59:32.172Z,40.07
2017-07-03T11:00:31.936Z,40.36
2017-07-03T11:01:31.858Z,40.36
2017-07-03T11:02:31.783Z,40.26
2017-07-03T11:03:31.638Z,40.07
2017-07-03T11:04:31.675Z,40.07
2017-07-03T11:05:31.590Z,40.36
2017-07-03T11:06:31.527Z,40.17
2017-07-03T11:07:31.463Z,40.17
2017-07-03T11:08:31.406Z,40.26
2017-07-03T11:09:31.336Z,40.26
2017-07-03T11:10:31.437Z,40.45
2017-07-03T11:11:31.211Z,40.26
2017-07-03T11:12:31.147Z,40.26
2017-07-03T11:13:31.085Z,39.97
2017-07-03T11:14:31.327Z,40.17
2017-07-03T11:15:30.976Z,40.28
2017-07-03T11:16:30.568Z,40.36
2017-07-03T11:17:30.832Z,40.28
2017-07-03T11:18:30.922Z,40.36
2017-07-03T11:19:30.376Z,40.55
2017-07-03T11:20:30.794Z,40.45
2017-07-03T11:21:30.581Z,40.26
2017-07-03T11:22:30.516Z,40.45
2017-07-03T11:23:30.457Z,40.19
2017-07-03T11:24:30.395Z,40.26
2017-07-03T11:25:30.345Z,40.26
2017-07-03T11:26:30.265Z,40.36
2017-07-03T11:27:30.202Z,40.57
2017-07-03T11:28:30.290Z,40.17
2017-07-03T11:29:30.082Z,40.26
2017-07-03T11:30:30.012Z,40.17
2017-07-03T11:31:29.623Z,40.38
2017-07-03T11:32:29.886Z,40.36
2017-07-03T11:33:29.827Z,40.26
2017-07-03T11:34:29.761Z,40.19
2017-07-03T11:35:29.848Z,39.97
2017-07-03T11:36:29.408Z,40.07
2017-07-03T11:37:29.570Z,40.28
2017-07-03T11:38:29.509Z,39.97
2017-07-03T11:39:29.116Z,39.87
2017-07-03T11:40:29.984Z,39.61
2017-07-03T11:41:29.321Z,39.59
2017-07-03T11:42:29.260Z,39.78
2017-07-03T11:43:28.868Z,39.7
2017-07-03T11:44:29.129Z,39.69
2017-07-03T11:45:28.737Z,40.17
2017-07-03T11:46:29.002Z,40.19
2017-07-03T11:47:28.941Z,39.78
2017-07-03T11:48:28.875Z,39.7
2017-07-03T11:49:28.813Z,39.59
2017-07-03T11:50:28.762Z,39.9
2017-07-03T11:51:28.705Z,39.7
2017-07-03T11:52:28.623Z,39.61
2017-07-03T11:53:28.565Z,39.9
2017-07-03T11:54:28.507Z,39.69
2017-07-03T11:55:28.619Z,40.07
2017-07-03T11:56:28.372Z,39.87
2017-07-03T11:57:28.608Z,39.99
2017-07-03T11:58:28.246Z,39.61
2017-07-03T11:59:28.180Z,39.32
2017-07-03T12:00:28.269Z,39.9
2017-07-03T12:01:27.725Z,39.9
2017-07-03T12:02:27.991Z,39.61
2017-07-03T12:03:27.931Z,39.39
2017-07-03T12:04:27.868Z,39.51
2017-07-03T12:05:27.801Z,39.51
2017-07-03T12:06:27.740Z,39.78
2017-07-03T12:07:27.680Z,39.9
2017-07-03T12:08:27.618Z,40.17
2017-07-03T12:09:27.556Z,39.78
2017-07-03T12:10:27.639Z,40.09
2017-07-03T12:11:27.573Z,40.38
2017-07-03T12:12:27.369Z,40.09
2017-07-03T12:13:27.298Z,40.38
2017-07-03T12:14:27.239Z,40.28
2017-07-03T12:15:27.242Z,40.38
2017-07-03T12:16:27.116Z,40.47
2017-07-03T12:17:27.053Z,40.38
2017-07-03T12:18:26.982Z,40.77
2017-07-03T12:19:26.921Z,40.47
2017-07-03T12:20:26.860Z,40.77
2017-07-03T12:21:26.795Z,40.57
2017-07-03T12:22:26.729Z,40.67
2017-07-03T12:23:26.665Z,41.15
2017-07-03T12:24:26.606Z,40.96
2017-07-03T12:25:26.688Z,40.96
2017-07-03T12:26:26.477Z,41.05
2017-07-03T12:27:26.444Z,40.96
2017-07-03T12:28:26.359Z,40.86
2017-07-03T12:29:26.286Z,41.15
2017-07-03T12:30:26.631Z,40.47
2017-07-03T12:31:26.366Z,41.25
2017-07-03T12:32:26.383Z,41.63
2017-07-03T12:33:25.711Z,41.15
2017-07-03T12:34:25.984Z,41.35
2017-07-03T12:35:26.025Z,41.63
2017-07-03T12:36:25.871Z,41.54
2017-07-03T12:37:25.789Z,41.35
2017-07-03T12:38:25.725Z,41.44
2017-07-03T12:39:25.657Z,41.83
2017-07-03T12:40:25.931Z,41.63
2017-07-03T12:41:25.531Z,41.63
2017-07-03T12:42:25.480Z,41.63
2017-07-03T12:43:25.411Z,41.83
2017-07-03T12:44:25.348Z,41.54
2017-07-03T12:45:25.253Z,42.02
2017-07-03T12:46:25.218Z,41.83
2017-07-03T12:47:25.157Z,41.73
2017-07-03T12:48:25.092Z,41.83
2017-07-03T12:49:25.032Z,41.93
2017-07-03T12:50:24.971Z,41.83
2017-07-03T12:51:24.901Z,42.21
2017-07-03T12:52:24.842Z,41.93
2017-07-03T12:53:24.776Z,42.14
2017-07-03T12:54:24.720Z,42.5
2017-07-03T12:55:24.802Z,42.72